Time;durP1;ratioP1;P1;durP2;ratioP2;P2;SDS_P1;SDS_P2;PMS_P1;PMS_P2;Temp;Humidity;BMP_temperature;BMP_pressure;BME280_temperature;BME280_humidity;BME280_pressure;Samples;Min_cycle;Max_cycle;Signal;HPM_P1;HPM_P2
2024/04/10 00:00:42;;;;;;;;;6.00;6.00;;;;;20.89;100.00;98420.16;6658672;26;94793;-61
2024/04/10 00:03:50;;;;;;;;;7.40;7.00;;;;;20.97;100.00;98425.78;6627498;26;94525;-61
2024/04/10 00:06:56;;;;;;;;;6.00;6.00;;;;;21.04;100.00;98417.16;6656026;26;94504;-61
2024/04/10 00:09:58;;;;;;;;;6.00;6.00;;;;;21.02;100.00;98403.75;6658610;26;95734;-61
2024/04/10 00:13:03;;;;;;;;;6.00;5.00;;;;;21.07;100.00;98422.03;6657572;26;94258;-61
2024/04/10 00:16:09;;;;;;;;;7.00;7.00;;;;;21.09;100.00;98420.63;6623102;26;94661;-61
2024/04/10 00:19:15;;;;;;;;;6.00;6.00;;;;;21.09;100.00;98422.56;6646110;26;94973;-61
2024/04/10 00:22:20;;;;;;;;;6.75;6.00;;;;;21.12;100.00;98419.22;6647705;26;94498;-60
2024/04/10 00:25:22;;;;;;;;;6.20;5.20;;;;;21.11;100.00;98420.34;6681437;26;94333;-60
2024/04/10 00:28:28;;;;;;;;;6.00;6.00;;;;;21.13;100.00;98426.31;6652152;26;94291;-60
2024/04/10 00:31:30;;;;;;;;;5.80;5.80;;;;;21.11;100.00;98423.88;6633654;26;96431;-60
2024/04/10 00:34:38;;;;;;;;;7.00;6.00;;;;;21.13;100.00;98429.06;6639222;26;94272;-60
2024/04/10 00:37:40;;;;;;;;;7.50;7.00;;;;;21.06;100.00;98425.91;6609223;26;94589;-61
2024/04/10 00:40:45;;;;;;;;;8.00;7.00;;;;;21.06;100.00;98429.44;6678277;26;94370;-60
2024/04/10 00:43:48;;;;;;;;;7.00;6.00;;;;;21.09;100.00;98430.78;6635097;26;94862;-60
2024/04/10 00:46:53;;;;;;;;;6.00;6.00;;;;;21.07;100.00;98433.81;6609934;26;94263;-60
2024/04/10 00:49:59;;;;;;;;;6.60;6.00;;;;;21.07;100.00;98433.00;6656864;26;95107;-60
2024/04/10 00:53:04;;;;;;;;;8.00;7.00;;;;;20.92;100.00;98419.56;6652451;26;94631;-60
2024/04/10 00:56:10;;;;;;;;;7.40;7.00;;;;;20.97;100.00;98450.44;6608098;26;94501;-59
2024/04/10 00:59:13;;;;;;;;;8.00;8.00;;;;;20.91;100.00;98450.84;6620987;26;94311;-60
2024/04/10 01:02:18;;;;;;;;;9.00;7.00;;;;;20.83;100.00;98454.25;6649778;26;94410;-61
2024/04/10 01:05:23;;;;;;;;;8.40;6.40;;;;;20.77;100.00;98459.78;6652435;26;96755;-60
2024/04/10 01:08:29;;;;;;;;;9.00;8.00;;;;;20.70;100.00;98459.38;6654052;26;94949;-60
2024/04/10 01:11:35;;;;;;;;;8.00;7.00;;;;;20.55;100.00;98456.06;6638365;26;94981;-60
2024/04/10 01:14:40;;;;;;;;;7.40;7.00;;;;;20.49;100.00;98462.72;6670729;26;94875;-60
2024/04/10 01:17:42;;;;;;;;;7.00;6.50;;;;;20.38;100.00;98467.50;6683441;26;94400;-60
2024/04/10 01:20:51;;;;;;;;;8.00;8.00;;;;;20.26;100.00;98458.91;6658484;26;95974;-60
2024/04/10 01:23:56;;;;;;;;;8.00;8.00;;;;;20.14;100.00;98478.47;6652181;26;94371;-60
2024/04/10 01:27:02;;;;;;;;;8.00;7.00;;;;;19.93;100.00;98479.88;6638719;26;94837;-60
2024/04/10 01:30:06;;;;;;;;;13.60;11.40;;;;;19.78;100.00;98472.66;6653855;26;94884;-60
2024/04/10 01:33:11;;;;;;;;;12.00;11.00;;;;;19.75;100.00;98483.34;6646817;26;94393;-57
2024/04/10 01:36:17;;;;;;;;;8.00;7.60;;;;;19.73;100.00;98485.56;6626176;26;94236;-57
2024/04/10 01:39:25;;;;;;;;;10.00;9.00;;;;;19.76;100.00;98490.44;6654301;26;94351;-57
2024/04/10 01:42:27;;;;;;;;;10.00;8.60;;;;;19.79;100.00;98493.41;6637807;26;94345;-56
2024/04/10 01:45:32;;;;;;;;;10.00;8.60;;;;;19.79;100.00;98490.69;6648364;26;94628;-57
2024/04/10 01:48:34;;;;;;;;;8.60;8.00;;;;;19.81;100.00;98504.06;6628144;26;94344;-57
2024/04/10 01:51:40;;;;;;;;;10.00;9.80;;;;;19.74;100.00;98503.63;6628731;26;94335;-57
2024/04/10 01:54:45;;;;;;;;;8.60;7.60;;;;;19.69;100.00;98512.69;6598344;26;95347;-56
2024/04/10 01:57:50;;;;;;;;;10.50;10.00;;;;;19.55;100.00;98516.41;6639608;26;94300;-57
2024/04/10 02:00:54;;;;;;;;;11.40;11.00;;;;;19.35;100.00;98511.91;6637695;26;94588;-57
2024/04/10 02:03:59;;;;;;;;;9.00;8.20;;;;;19.44;100.00;98529.34;6670253;26;94463;-57
2024/04/10 02:07:03;;;;;;;;;11.00;10.80;;;;;19.29;100.00;98532.19;6642994;26;94620;-57
2024/04/10 02:10:10;;;;;;;;;10.00;9.00;;;;;19.15;100.00;98525.75;6673834;26;94277;-56
2024/04/10 02:13:13;;;;;;;;;14.40;11.00;;;;;19.13;100.00;98536.16;6632012;26;94487;-57
2024/04/10 02:16:18;;;;;;;;;13.00;12.00;;;;;18.95;100.00;98548.59;6568764;26;96510;-57
2024/04/10 02:19:21;;;;;;;;;13.00;10.25;;;;;18.82;100.00;98550.03;6633379;26;94361;-57
2024/04/10 02:22:26;;;;;;;;;13.20;12.00;;;;;18.83;100.00;98542.66;6649829;26;94310;-57
2024/04/10 02:25:33;;;;;;;;;13.00;11.50;;;;;18.76;100.00;98553.91;6661819;26;94061;-57
2024/04/10 02:28:36;;;;;;;;;13.00;12.00;;;;;18.75;100.00;98560.47;6670919;26;94345;-57
2024/04/10 02:31:41;;;;;;;;;11.60;11.00;;;;;18.70;100.00;98562.41;6600407;26;97125;-57
2024/04/10 02:34:44;;;;;;;;;13.00;12.50;;;;;18.74;100.00;98571.66;6660875;26;94842;-57
2024/04/10 02:37:50;;;;;;;;;14.60;13.60;;;;;18.58;100.00;98569.00;6603644;26;94706;-57
2024/04/10 02:40:55;;;;;;;;;14.80;13.80;;;;;18.52;100.00;98570.09;6612937;26;96376;-57
2024/04/10 02:44:00;;;;;;;;;16.50;15.25;;;;;18.57;100.00;98582.94;6672481;26;94297;-57
2024/04/10 02:47:03;;;;;;;;;16.20;15.00;;;;;18.60;100.00;98593.31;6624596;26;94209;-57
2024/04/10 02:50:08;;;;;;;;;15.33;14.00;;;;;18.65;100.00;98595.19;6622879;26;94774;-57
2024/04/10 02:53:10;;;;;;;;;17.33;15.00;;;;;18.74;100.00;98601.69;6645360;26;95210;-56
2024/04/10 02:56:20;;;;;;;;;20.40;16.40;;;;;18.72;100.00;98606.59;6628451;26;94669;-57
2024/04/10 02:59:23;;;;;;;;;16.00;14.00;;;;;18.79;100.00;98618.88;6627680;26;94409;-58
2024/04/10 03:02:28;;;;;;;;;17.00;15.50;;;;;18.85;100.00;98625.13;6599955;26;94422;-57
2024/04/10 03:05:30;;;;;;;;;17.00;14.40;;;;;18.89;100.00;98627.00;6600188;26;94852;-58
2024/04/10 03:08:36;;;;;;;;;15.00;14.60;;;;;18.85;100.00;98628.69;6664660;26;96097;-57
2024/04/10 03:11:44;;;;;;;;;13.40;13.00;;;;;18.87;100.00;98640.13;6634011;26;94203;-57
2024/04/10 03:14:47;;;;;;;;;16.00;14.00;;;;;18.91;100.00;98645.88;6640939;26;94303;-58
2024/04/10 03:17:53;;;;;;;;;17.00;15.80;;;;;18.92;100.00;98651.03;6653627;26;94982;-59
2024/04/10 03:20:56;;;;;;;;;15.60;13.00;;;;;18.97;100.00;98651.00;6649240;26;94733;-58
2024/04/10 03:24:01;;;;;;;;;15.75;15.00;;;;;18.94;100.00;98662.50;6606243;26;96545;-58
2024/04/10 03:27:06;;;;;;;;;15.00;15.00;;;;;18.92;100.00;98666.59;6652808;26;95814;-57
2024/04/10 03:30:12;;;;;;;;;16.00;14.40;;;;;18.92;100.00;98681.06;6598023;26;95101;-59
2024/04/10 03:33:14;;;;;;;;;17.00;16.00;;;;;18.90;100.00;98675.09;6669207;26;94772;-57
2024/04/10 03:36:20;;;;;;;;;15.80;15.20;;;;;18.81;100.00;98684.16;6667970;26;94769;-57
2024/04/10 03:39:22;;;;;;;;;16.00;14.00;;;;;18.84;100.00;98686.31;6631224;26;94341;-57
2024/04/10 03:42:30;;;;;;;;;15.60;14.00;;;;;18.86;100.00;98703.25;6628004;26;94320;-57
2024/04/10 03:45:35;;;;;;;;;14.60;14.40;;;;;18.83;100.00;98711.97;6658041;26;94314;-58
2024/04/10 03:48:41;;;;;;;;;16.00;13.50;;;;;18.83;100.00;98715.53;6639066;26;94287;-57
2024/04/10 03:51:46;;;;;;;;;16.20;15.00;;;;;18.88;100.00;98725.63;6667322;26;94480;-57
2024/04/10 03:54:49;;;;;;;;;14.00;13.20;;;;;18.87;100.00;98722.06;6648292;26;94685;-57
2024/04/10 03:57:56;;;;;;;;;15.60;14.00;;;;;18.95;100.00;98726.16;6651474;26;94401;-57
2024/04/10 04:01:05;;;;;;;;;15.40;13.00;;;;;18.95;100.00;98737.91;6641329;26;95589;-58
2024/04/10 04:04:10;;;;;;;;;15.80;13.00;;;;;19.04;100.00;98744.41;6647328;26;94778;-57
2024/04/10 04:07:12;;;;;;;;;15.80;14.00;;;;;18.94;100.00;98749.09;6668132;26;94384;-57
2024/04/10 04:10:17;;;;;;;;;14.00;13.00;;;;;19.02;100.00;98765.72;6648269;26;97401;-58
2024/04/10 04:13:22;;;;;;;;;14.00;13.00;;;;;19.08;100.00;98772.00;6655262;26;94325;-57
2024/04/10 04:16:27;;;;;;;;;11.50;10.00;;;;;19.14;100.00;98772.78;6653654;26;94598;-57
2024/04/10 04:19:32;;;;;;;;;13.00;13.00;;;;;19.17;100.00;98785.88;6667197;26;94825;-58
2024/04/10 04:22:35;;;;;;;;;14.00;11.60;;;;;19.27;100.00;98786.66;6618732;26;94676;-58
2024/04/10 04:25:40;;;;;;;;;12.00;11.00;;;;;19.34;100.00;98780.91;6659285;26;94824;-58
2024/04/10 04:28:48;;;;;;;;;14.00;12.00;;;;;19.48;100.00;98792.88;6643748;26;94430;-57
2024/04/10 04:31:51;;;;;;;;;10.60;10.00;;;;;19.51;100.00;98792.31;6626543;26;94585;-58
2024/04/10 04:34:56;;;;;;;;;12.80;11.00;;;;;19.61;100.00;98794.97;6630340;26;96288;-57
2024/04/10 04:37:58;;;;;;;;;12.00;12.00;;;;;19.70;100.00;98797.94;6647988;26;94918;-57
2024/04/10 04:41:03;;;;;;;;;13.00;11.80;;;;;19.74;100.00;98804.50;6650264;26;94851;-57
2024/04/10 04:44:11;;;;;;;;;14.25;12.00;;;;;19.80;100.00;98814.28;6601903;26;95868;-58
2024/04/10 04:47:15;;;;;;;;;14.00;13.50;;;;;19.87;100.00;98825.75;6648134;26;94348;-58
2024/04/10 04:50:21;;;;;;;;;15.00;13.40;;;;;19.90;100.00;98836.09;6634821;26;94565;-57
2024/04/10 04:53:26;;;;;;;;;13.50;12.00;;;;;19.94;100.00;98830.91;6665507;26;94538;-57
2024/04/10 04:56:28;;;;;;;;;11.40;10.00;;;;;19.96;100.00;98840.44;6648809;26;94334;-58
2024/04/10 04:59:36;;;;;;;;;13.00;11.00;;;;;20.04;100.00;98847.22;6632045;26;96899;-57
2024/04/10 05:02:39;;;;;;;;;18.00;13.00;;;;;20.12;100.00;98852.13;6637088;26;94611;-60
2024/04/10 05:05:44;;;;;;;;;13.25;12.00;;;;;20.14;100.00;98855.38;6624871;26;94911;-60
2024/04/10 05:08:51;;;;;;;;;12.00;10.60;;;;;20.20;100.00;98854.25;6614112;26;94631;-60
2024/04/10 05:11:56;;;;;;;;;12.00;10.50;;;;;20.22;100.00;98850.13;6650636;26;94529;-60
2024/04/10 05:15:06;;;;;;;;;11.60;10.80;;;;;20.21;100.00;98866.84;6654097;26;95018;-60
2024/04/10 05:18:11;;;;;;;;;10.60;10.00;;;;;20.26;100.00;98870.34;6621239;26;94774;-60
2024/04/10 05:21:13;;;;;;;;;13.00;11.00;;;;;20.31;100.00;98878.56;6625191;26;94968;-60
2024/04/10 05:24:18;;;;;;;;;9.60;9.00;;;;;20.36;100.00;98885.91;6627426;26;95398;-60
2024/04/10 05:27:22;;;;;;;;;9.00;8.00;;;;;20.33;100.00;98881.81;6643701;26;94402;-60
2024/04/10 05:30:30;;;;;;;;;10.75;8.50;;;;;20.41;100.00;98890.53;6614948;26;95807;-60
2024/04/10 05:33:33;;;;;;;;;10.00;10.00;;;;;20.37;100.00;98876.63;6617618;26;94370;-60
2024/04/10 05:36:39;;;;;;;;;12.00;11.00;;;;;20.44;100.00;98896.25;6633154;26;96301;-60
2024/04/10 05:39:41;;;;;;;;;12.75;11.00;;;;;20.55;100.00;98908.78;6602668;26;94741;-60
2024/04/10 05:42:47;;;;;;;;;11.00;10.00;;;;;20.52;100.00;98906.63;6609347;26;94667;-60
2024/04/10 05:45:54;;;;;;;;;9.50;9.00;;;;;20.67;100.00;98906.47;6610616;26;94947;-60
2024/04/10 05:48:59;;;;;;;;;11.20;10.80;;;;;20.66;100.00;98898.56;6611977;26;94387;-60
2024/04/10 05:52:03;;;;;;;;;13.00;11.00;;;;;20.79;100.00;98913.50;6614384;26;94632;-60
2024/04/10 05:55:08;;;;;;;;;12.20;9.00;;;;;20.77;100.00;98922.81;6615743;26;94892;-60
2024/04/10 05:58:13;;;;;;;;;11.33;11.00;;;;;20.84;100.00;98924.41;6615718;26;94332;-60
2024/04/10 06:01:18;;;;;;;;;12.00;10.80;;;;;20.87;100.00;98927.38;6637367;26;94553;-60
2024/04/10 06:04:23;;;;;;;;;11.20;10.80;;;;;20.95;100.00;98934.19;6659657;26;94277;-60
2024/04/10 06:07:28;;;;;;;;;13.00;13.00;;;;;20.95;100.00;98939.69;6659877;26;94654;-60
2024/04/10 06:10:31;;;;;;;;;13.00;12.75;;;;;20.94;100.00;98951.72;6659924;26;94471;-60
2024/04/10 06:13:36;;;;;;;;;11.60;10.60;;;;;20.85;100.00;98954.28;6674810;26;94345;-57
2024/04/10 06:16:41;;;;;;;;;15.00;14.00;;;;;20.76;100.00;98972.44;6643759;26;94414;-57
2024/04/10 06:19:46;;;;;;;;;13.40;12.40;;;;;20.63;100.00;98973.06;6674380;26;94432;-57
2024/04/10 06:22:49;;;;;;;;;12.00;10.40;;;;;20.46;100.00;98981.69;6674858;26;94396;-57
2024/04/10 06:25:54;;;;;;;;;12.00;10.50;;;;;20.24;100.00;98987.53;6674554;26;94431;-57
2024/04/10 06:28:59;;;;;;;;;11.00;9.00;;;;;20.18;100.00;98976.91;6674773;26;94700;-56
2024/04/10 06:32:07;;;;;;;;;11.00;9.00;;;;;20.14;100.00;98989.50;6642050;26;97750;-57
2024/04/10 06:35:14;;;;;;;;;11.00;10.00;;;;;19.96;100.00;98996.44;6620101;26;94397;-57
2024/04/10 06:38:19;;;;;;;;;9.20;8.60;;;;;20.02;100.00;99006.25;6672890;26;94289;-57
2024/04/10 06:41:21;;;;;;;;;9.80;9.00;;;;;19.78;100.00;99011.56;6643425;26;95118;-57
2024/04/10 06:44:26;;;;;;;;;10.00;9.00;;;;;19.52;100.00;99001.78;6643857;26;94504;-57
2024/04/10 06:47:31;;;;;;;;;9.60;9.60;;;;;19.52;100.00;99018.19;6643559;26;94424;-57
2024/04/10 06:50:38;;;;;;;;;10.60;10.60;;;;;19.45;100.00;99023.09;6642732;26;96620;-57
2024/04/10 06:53:40;;;;;;;;;10.00;10.00;;;;;19.57;100.00;99036.50;6642801;26;95170;-57
2024/04/10 06:56:45;;;;;;;;;8.75;8.25;;;;;19.60;100.00;99035.94;6673270;26;94366;-57
2024/04/10 06:59:48;;;;;;;;;12.20;11.20;;;;;19.52;100.00;99042.78;6673818;26;94403;-57
2024/04/10 07:02:56;;;;;;;;;15.00;14.00;;;;;19.62;100.00;99050.97;6674091;26;94375;-57
2024/04/10 07:06:05;;;;;;;;;12.40;12.00;;;;;19.60;100.00;99042.22;6673123;26;94450;-57
2024/04/10 07:09:12;;;;;;;;;12.00;11.00;;;;;19.63;100.00;99066.28;6641338;26;94835;-57
2024/04/10 07:12:17;;;;;;;;;11.80;11.00;;;;;19.69;100.00;99065.19;6673179;26;95036;-56
2024/04/10 07:15:20;;;;;;;;;13.80;13.00;;;;;19.75;100.00;99079.66;6641218;26;96773;-57
2024/04/10 07:18:29;;;;;;;;;12.40;11.80;;;;;19.76;100.00;99097.72;6659450;26;94569;-57
2024/04/10 07:21:35;;;;;;;;;11.25;11.00;;;;;19.72;100.00;99094.72;6634385;26;94597;-61
2024/04/10 07:24:40;;;;;;;;;12.25;11.25;;;;;19.63;100.00;99101.84;6650024;26;94740;-60
2024/04/10 07:27:42;;;;;;;;;10.00;10.00;;;;;19.63;100.00;99111.97;6637162;26;94348;-60
2024/04/10 07:30:50;;;;;;;;;11.60;10.60;;;;;19.55;100.00;99105.13;6641022;26;94328;-60
2024/04/10 07:33:56;;;;;;;;;12.00;10.75;;;;;19.68;100.00;99129.19;6640758;26;94769;-61
2024/04/10 07:37:03;;;;;;;;;15.00;14.00;;;;;19.60;100.00;99131.66;6640058;26;94358;-60
2024/04/10 07:40:07;;;;;;;;;14.00;13.00;;;;;19.55;100.00;99140.69;6649817;26;94320;-60
2024/04/10 07:43:12;;;;;;;;;10.00;9.20;;;;;19.40;100.00;99149.66;6667945;26;94278;-60
2024/04/10 07:46:16;;;;;;;;;10.40;9.40;;;;;19.29;100.00;99155.41;6623375;26;96466;-60
2024/04/10 07:49:24;;;;;;;;;10.40;10.40;;;;;19.20;100.00;99160.59;6683740;26;94803;-60
2024/04/10 07:52:26;;;;;;;;;10.50;9.50;;;;;19.14;100.00;99153.47;6684787;26;94344;-60
2024/04/10 07:55:31;;;;;;;;;14.00;12.33;;;;;19.12;100.00;99165.75;6684687;26;94482;-60
2024/04/10 07:58:35;;;;;;;;;14.25;14.00;;;;;19.09;100.00;99171.78;6684666;26;94805;-61
2024/04/10 08:01:40;;;;;;;;;18.00;14.00;;;;;18.88;100.00;99174.44;6653033;26;96593;-61
2024/04/10 08:04:45;;;;;;;;;12.00;11.00;;;;;18.85;100.00;99182.38;6684242;26;94801;-61
2024/04/10 08:07:50;;;;;;;;;15.00;14.00;;;;;18.64;100.00;99188.84;6649805;26;94797;-60
2024/04/10 08:10:59;;;;;;;;;13.00;12.00;;;;;18.65;100.00;99201.41;6684011;26;94380;-60
2024/04/10 08:14:04;;;;;;;;;13.75;11.75;;;;;18.65;100.00;99215.88;6684400;26;94440;-61
2024/04/10 08:17:07;;;;;;;;;12.00;11.00;;;;;18.52;100.00;99222.59;6623966;26;96649;-60
2024/04/10 08:20:15;;;;;;;;;13.20;13.00;;;;;18.27;100.00;99211.56;6658399;26;95417;-60
2024/04/10 08:23:17;;;;;;;;;12.20;12.00;;;;;18.36;100.00;99233.72;6652339;26;94322;-60
2024/04/10 08:26:22;;;;;;;;;12.80;11.00;;;;;18.32;100.00;99249.00;6654592;26;94377;-61
2024/04/10 08:29:28;;;;;;;;;18.00;16.00;;;;;18.37;100.00;99259.94;6629760;26;95825;-61
2024/04/10 08:32:32;;;;;;;;;17.80;17.40;;;;;18.21;100.00;99253.53;6627711;26;94372;-62
2024/04/10 08:35:42;;;;;;;;;15.40;14.40;;;;;18.29;100.00;99260.41;6625257;26;94692;-60
2024/04/10 08:38:45;;;;;;;;;14.00;13.40;;;;;18.32;100.00;99266.19;6626658;26;94323;-60
2024/04/10 08:41:51;;;;;;;;;17.00;16.00;;;;;17.99;100.00;99261.81;6604006;26;96539;-59
2024/04/10 08:44:54;;;;;;;;;15.00;14.00;;;;;17.96;100.00;99286.91;6625529;26;95476;-62
2024/04/10 08:48:00;;;;;;;;;14.20;13.80;;;;;17.86;100.00;99295.00;6596082;26;94630;-62
2024/04/10 08:51:12;;;;;;;;;12.60;12.60;;;;;17.83;100.00;99298.25;6553994;26;97050;-62
2024/04/10 08:54:16;;;;;;;;;12.25;12.00;;;;;17.91;100.00;99308.69;6612313;26;96477;-61
2024/04/10 08:57:21;;;;;;;;;11.00;10.00;;;;;17.83;100.00;99306.44;6656019;26;94430;-62
2024/04/10 09:00:24;;;;;;;;;14.50;13.00;;;;;17.95;100.00;99314.44;6624379;26;96639;-62
2024/04/10 09:03:29;;;;;;;;;12.00;11.00;;;;;17.89;100.00;99331.84;6656746;26;94554;-62
2024/04/10 09:06:37;;;;;;;;;12.00;10.50;;;;;17.94;100.00;99324.53;6625786;26;94362;-60
2024/04/10 09:09:40;;;;;;;;;13.00;11.33;;;;;18.01;100.00;99338.78;6655452;26;95206;-60
2024/04/10 09:12:50;;;;;;;;;12.00;11.00;;;;;17.97;100.00;99334.94;6656382;26;94357;-60
2024/04/10 09:15:56;;;;;;;;;10.00;10.00;;;;;17.87;100.00;99340.31;6655003;26;95222;-60
2024/04/10 09:19:12;;;;;;;;;10.20;9.20;;;;;17.90;100.00;99355.31;6623325;26;94706;-60
2024/04/10 09:22:17;;;;;;;;;9.80;9.00;;;;;17.88;100.00;99352.03;6621108;26;94457;-60
2024/04/10 09:25:22;;;;;;;;;10.75;10.00;;;;;17.92;100.00;99359.44;6652809;26;94759;-60
2024/04/10 09:28:25;;;;;;;;;11.00;10.00;;;;;17.90;100.00;99347.97;6655300;26;95249;-60
2024/04/10 09:31:30;;;;;;;;;11.00;10.00;;;;;18.05;100.00;99361.75;6625139;26;94790;-60
2024/04/10 09:34:35;;;;;;;;;11.40;9.40;;;;;17.97;100.00;99373.13;6656316;26;95808;-61
2024/04/10 09:37:43;;;;;;;;;9.00;9.00;;;;;18.12;100.00;99378.75;6625069;26;94406;-60
2024/04/10 09:41:03;;;;;;;;;10.25;8.25;;;;;18.29;100.00;99381.34;6624220;26;94834;-60
2024/04/10 09:44:10;;;;;;;;;8.00;8.00;;;;;18.50;100.00;99393.25;6596054;26;97126;-59
2024/04/10 09:47:19;;;;;;;;;8.00;7.00;;;;;18.52;100.00;99397.34;6625094;26;95862;-59
2024/04/10 09:50:29;;;;;;;;;9.00;8.00;;;;;18.40;100.00;99390.44;6654658;26;94703;-59
2024/04/10 09:53:38;;;;;;;;;9.00;8.00;;;;;18.50;100.00;99405.00;6623815;26;96969;-59
2024/04/10 09:56:45;;;;;;;;;9.00;9.00;;;;;18.68;100.00;99403.78;6656283;26;94570;-59
2024/04/10 09:59:48;;;;;;;;;9.20;9.00;;;;;18.78;100.00;99394.84;6595515;26;94949;-59
2024/04/10 10:03:05;;;;;;;;;7.00;6.00;;;;;19.01;100.00;99406.22;6624474;26;95081;-59
2024/04/10 10:06:11;;;;;;;;;9.00;8.00;;;;;18.95;100.00;99395.53;6656046;26;94812;-59
2024/04/10 10:09:27;;;;;;;;;7.00;6.80;;;;;19.06;100.00;99396.41;6656349;26;95052;-60
2024/04/10 10:12:33;;;;;;;;;7.00;7.00;;;;;19.20;100.00;99403.06;6658472;26;94903;-59
2024/04/10 10:15:39;;;;;;;;;11.00;10.40;;;;;19.25;100.00;99414.00;6660057;26;94807;-59
2024/04/10 10:18:53;;;;;;;;;8.00;8.00;;;;;19.20;100.00;99409.34;6659939;26;94686;-60
2024/04/10 10:22:02;;;;;;;;;9.40;8.40;;;;;19.28;100.00;99424.41;6631799;26;95114;-59
2024/04/10 10:25:14;;;;;;;;;10.00;8.00;;;;;19.49;100.00;99414.44;6584793;26;94890;-59
2024/04/10 10:28:20;;;;;;;;;9.00;8.00;;;;;19.45;100.00;99423.16;6642623;26;94634;-59
2024/04/10 10:31:22;;;;;;;;;8.20;8.00;;;;;19.56;100.00;99425.94;6627636;26;96240;-59
2024/04/10 10:34:27;;;;;;;;;7.60;7.00;;;;;19.60;100.00;99421.56;6612780;26;96584;-59
2024/04/10 10:37:31;;;;;;;;;9.00;7.00;;;;;19.69;100.00;99430.94;6642804;26;94618;-60
2024/04/10 10:40:39;;;;;;;;;8.00;7.00;;;;;19.72;100.00;99447.63;6650029;26;94851;-59
2024/04/10 10:43:41;;;;;;;;;8.00;7.60;;;;;19.77;100.00;99436.69;6605442;26;96491;-59
2024/04/10 10:46:46;;;;;;;;;8.00;7.00;;;;;19.86;100.00;99451.50;6615933;26;94744;-60
2024/04/10 10:49:49;;;;;;;;;6.00;6.00;;;;;19.88;100.00;99460.28;6590650;26;94951;-59
2024/04/10 10:52:56;;;;;;;;;7.20;6.20;;;;;19.90;100.00;99455.34;6588279;26;96728;-59
2024/04/10 10:56:01;;;;;;;;;8.00;8.00;;;;;19.89;100.00;99459.16;6615141;26;94385;-59
2024/04/10 10:59:14;;;;;;;;;9.00;8.00;;;;;19.80;100.00;99458.03;6634598;26;95753;-59
2024/04/10 11:02:20;;;;;;;;;9.80;8.00;;;;;19.89;100.00;99467.38;6586244;26;96893;-59
2024/04/10 11:05:25;;;;;;;;;10.25;9.00;;;;;19.86;100.00;99469.84;6591617;26;96617;-60
2024/04/10 11:08:31;;;;;;;;;11.80;10.80;;;;;20.03;100.00;99481.41;6625785;26;95441;-60
2024/04/10 11:11:36;;;;;;;;;10.00;10.00;;;;;20.09;100.00;99484.94;6634104;26;94955;-59
2024/04/10 11:14:41;;;;;;;;;9.00;9.00;;;;;20.05;100.00;99492.06;6658673;26;95317;-59
2024/04/10 11:17:43;;;;;;;;;11.40;10.00;;;;;20.10;100.00;99498.38;6658754;26;94337;-59
2024/04/10 11:20:50;;;;;;;;;9.00;8.00;;;;;19.90;100.00;99495.56;6628861;26;94667;-60
2024/04/10 11:23:53;;;;;;;;;9.00;8.00;;;;;19.69;100.00;99511.09;6634322;26;96335;-59
2024/04/10 11:27:02;;;;;;;;;8.00;7.00;;;;;19.53;100.00;99503.06;6636979;26;94790;-60
2024/04/10 11:30:09;;;;;;;;;6.00;6.00;;;;;19.40;100.00;99504.34;6632395;26;94855;-60
2024/04/10 11:33:14;;;;;;;;;8.00;7.00;;;;;19.54;100.00;99508.28;6628384;26;94896;-60
2024/04/10 11:36:16;;;;;;;;;7.00;6.00;;;;;19.72;100.00;99504.25;6614468;26;94744;-60
2024/04/10 11:39:21;;;;;;;;;8.00;7.00;;;;;19.78;100.00;99508.66;6614901;26;94801;-60
2024/04/10 11:42:27;;;;;;;;;9.20;8.00;;;;;19.96;100.00;99512.84;6612569;26;94351;-60
2024/04/10 11:45:32;;;;;;;;;7.00;6.60;;;;;19.91;100.00;99508.16;6612847;26;94733;-60
2024/04/10 11:48:38;;;;;;;;;9.00;8.00;;;;;19.78;100.00;99504.03;6614359;26;94673;-60
2024/04/10 11:51:41;;;;;;;;;9.60;8.00;;;;;20.01;100.00;99516.41;6591526;26;94886;-60
2024/04/10 11:54:46;;;;;;;;;9.00;7.75;;;;;20.14;100.00;99502.22;6636314;26;94696;-60
2024/04/10 11:57:53;;;;;;;;;10.00;8.40;;;;;20.42;100.00;99511.09;6651737;26;94733;-60
2024/04/10 12:00:56;;;;;;;;;10.25;9.00;;;;;20.67;100.00;99519.38;6640540;26;94688;-60
2024/04/10 12:04:01;;;;;;;;;9.00;8.00;;;;;20.92;100.00;99518.53;6603037;26;96751;-60
2024/04/10 12:07:04;;;;;;;;;9.20;8.80;;;;;21.18;100.00;99509.25;6614137;26;95101;-60
2024/04/10 12:10:10;;;;;;;;;11.00;11.00;;;;;21.21;100.00;99505.94;6613796;26;94729;-60
2024/04/10 12:13:15;;;;;;;;;11.00;10.60;;;;;21.40;100.00;99512.53;6582833;26;94858;-60
2024/04/10 12:16:20;;;;;;;;;11.50;11.00;;;;;21.70;100.00;99508.84;6600667;26;96394;-60
2024/04/10 12:19:25;;;;;;;;;12.00;10.00;;;;;21.64;100.00;99503.69;6622350;26;95299;-60
2024/04/10 12:22:28;;;;;;;;;12.00;11.00;;;;;21.96;100.00;99504.97;6613699;26;94879;-60
2024/04/10 12:25:33;;;;;;;;;10.40;10.00;;;;;21.98;100.00;99510.19;6631027;26;95673;-60
2024/04/10 12:28:38;;;;;;;;;11.80;10.40;;;;;21.98;100.00;99507.44;6586098;26;96489;-60
2024/04/10 12:31:45;;;;;;;;;11.00;10.40;;;;;21.94;100.00;99514.59;6620446;26;94764;-60
2024/04/10 12:34:58;;;;;;;;;12.00;10.00;;;;;21.70;100.00;99503.38;6622415;26;94502;-60
2024/04/10 12:38:06;;;;;;;;;11.60;10.60;;;;;21.80;100.00;99528.03;6617284;26;95080;-60
2024/04/10 12:41:14;;;;;;;;;15.00;12.00;;;;;21.79;100.00;99528.34;6599037;26;95668;-60
2024/04/10 12:44:23;;;;;;;;;12.00;11.00;;;;;21.55;100.00;99528.13;6618358;26;96632;-60
2024/04/10 12:47:28;;;;;;;;;12.75;12.00;;;;;21.34;100.00;99523.78;6622890;26;95073;-60
2024/04/10 12:50:31;;;;;;;;;13.20;12.00;;;;;21.35;100.00;99539.97;6629179;26;94779;-60
2024/04/10 12:53:37;;;;;;;;;12.60;11.60;;;;;21.23;100.00;99525.69;6613430;26;94633;-60
2024/04/10 12:56:39;;;;;;;;;12.00;11.00;;;;;21.10;100.00;99528.97;6584473;26;96605;-60
2024/04/10 12:59:50;;;;;;;;;12.00;11.00;;;;;20.82;100.00;99535.00;6621067;26;94419;-60
2024/04/10 13:02:56;;;;;;;;;13.00;11.00;;;;;20.75;100.00;99530.59;6592683;26;96652;-60
2024/04/10 13:05:59;;;;;;;;;13.00;11.80;;;;;20.44;100.00;99520.69;6615152;26;94711;-60
2024/04/10 13:09:08;;;;;;;;;14.00;13.00;;;;;20.48;100.00;99532.75;6581500;26;94393;-60
2024/04/10 13:12:13;;;;;;;;;16.60;14.40;;;;;20.21;100.00;99535.66;6627519;26;94387;-58
2024/04/10 13:15:19;;;;;;;;;13.50;12.50;;;;;20.06;100.00;99548.47;6622592;26;95259;-58
2024/04/10 13:18:24;;;;;;;;;14.00;13.00;;;;;19.89;100.00;99541.25;6654091;26;95271;-58
2024/04/10 13:21:27;;;;;;;;;13.00;12.00;;;;;19.81;100.00;99544.53;6653579;26;94936;-58
2024/04/10 13:24:34;;;;;;;;;14.80;14.20;;;;;19.82;100.00;99557.13;6652794;26;94951;-57
2024/04/10 13:27:37;;;;;;;;;12.00;11.00;;;;;19.60;100.00;99556.44;6623048;26;96648;-58
2024/04/10 13:30:44;;;;;;;;;13.00;12.00;;;;;19.42;100.00;99559.56;6598330;26;97130;-58
2024/04/10 13:33:51;;;;;;;;;13.00;11.60;;;;;19.42;100.00;99568.59;6601395;26;96650;-57
2024/04/10 13:36:55;;;;;;;;;10.00;10.00;;;;;19.43;100.00;99572.16;6656427;26;94384;-57
2024/04/10 13:40:00;;;;;;;;;13.00;12.00;;;;;19.30;100.00;99584.34;6627252;26;94487;-57
2024/04/10 13:43:06;;;;;;;;;13.50;12.50;;;;;19.06;100.00;99574.06;6672747;26;94393;-57
2024/04/10 13:46:12;;;;;;;;;14.60;13.00;;;;;19.11;100.00;99590.50;6669154;26;94807;-58
2024/04/10 13:49:17;;;;;;;;;12.20;12.20;;;;;19.06;100.00;99596.72;6626563;26;96613;-57
2024/04/10 13:52:20;;;;;;;;;12.20;11.20;;;;;19.07;100.00;99586.63;6659139;26;94673;-58
2024/04/10 13:55:26;;;;;;;;;12.00;12.00;;;;;18.99;100.00;99596.13;6674274;26;94452;-58
2024/04/10 13:58:28;;;;;;;;;12.00;11.00;;;;;18.97;100.00;99588.19;6672017;26;94385;-58
2024/04/10 14:01:36;;;;;;;;;10.00;9.00;;;;;19.03;100.00;99591.78;6638222;26;94296;-57
2024/04/10 14:04:41;;;;;;;;;14.00;13.00;;;;;19.06;100.00;99602.19;6642511;26;96607;-57
2024/04/10 14:07:46;;;;;;;;;11.00;10.00;;;;;18.99;100.00;99605.16;6615621;26;96714;-58